Pagrindinis puslapis
METAR-TAF:

METAR-TAF

Oro uostai :

Zamboanga, Filipinai

platuma: 06-54N, ilguma: 122-04E, Aukštis: 5 m

Dabartinis oras

Ataskaita buvo paskelbta 1 valandą ir 18 minutes, ne 10:00 UTC
Vėjas 1 kt iš Rytų
Temperatūra 28°C
Drėgmė 79%
Slėgis 1007 hPa
Matomumas 10 km arba daugiau
Mažai debesys ne aukštis 1700 ft
Su prošvaistėmis ne aukštis 30000 ft

METAR: RPMZ 061000Z 08001KT 9999 FEW017 BKN300 28/24 Q1007 RMK A2974

Laikas: 19:18 (11:18 UTC)

Prognozė

Ataskaita buvo paskelbta 6 valandos ir 18 minutes, ne 05:00 UTC
Prognozė galioja nuo 06 metu 06 UTC su 07 metu 06 UTC
Vėjas 5 kt iš Rytų/Šiaurės Rytų
Matomumas 10 km arba daugiau
Mažai debesys ne aukštis 1700 ft
Išsisklaidę debesys ne aukštis 9000 ft
Su prošvaistėmis ne aukštis 30000 ft
Laikinai
nuo 06 metu 06 UTC su 06 metu 12 UTC
Vėjas 10 kt iš Šiaurės Rytų
Mažai debesys ne aukštis 1600 ft, Liūtiniai kamuoliniai debesys.
Su prošvaistėmis ne aukštis 9000 ft

TAF: RPMZ 060500Z 0606/0706 06005KT 9999 FEW017 SCT090 BKN300 TEMPO 0606/0612 04010KT FEW016CB BKN090

Orai ataskaitas ir orų prognozės (METAR, TAF).

turimą stotys yra geltonos ir raudonos taškus žemėlapyje.

Perkelti pele per norėdami pamatyti stoties vardą.

Tada spustelėkite, norėdami matyti oro stebėjimo ir prognozės.

Norėdami pakeisti žemėlapį: spustelėkite ant žalios mygtukų su juodo kryžiaus žemyn,; žalią mygtuką su brūkšneliu, jei norite nutolinti; arba žalių rodyklių gretimoms žemėlapius.


METAR-TAF: